createdAt,value
2019-05-26T00:01:53.757Z,12.15
2019-05-26T00:04:25.651Z,12.32
2019-05-26T00:06:56.688Z,11.97
2019-05-26T00:09:28.054Z,11.97
2019-05-26T00:11:59.084Z,12.18
2019-05-26T00:14:30.056Z,11.79
2019-05-26T00:17:02.408Z,11.95
2019-05-26T00:19:33.930Z,11.71
2019-05-26T00:22:05.010Z,11.92
2019-05-26T00:24:36.352Z,11.72
2019-05-26T00:27:07.430Z,11.44
2019-05-26T00:29:38.941Z,11.35
2019-05-26T00:32:09.896Z,11.34
2019-05-26T00:34:40.885Z,11.84
2019-05-26T00:37:12.276Z,11.79
2019-05-26T00:39:43.566Z,11.59
2019-05-26T00:42:14.794Z,11.72
2019-05-26T00:44:45.750Z,11.92
2019-05-26T00:47:16.982Z,11.89
2019-05-26T00:49:47.943Z,11.68
2019-05-26T00:52:19.253Z,11.72
2019-05-26T00:54:50.599Z,12.11
2019-05-26T00:57:21.741Z,12.18
2019-05-26T00:59:52.804Z,12.09
2019-05-26T01:02:24.070Z,11.90
2019-05-26T01:04:55.285Z,11.75
2019-05-26T01:07:26.964Z,11.61
2019-05-26T01:09:57.901Z,11.69
2019-05-26T01:12:29.363Z,11.85
2019-05-26T01:15:00.316Z,11.49
2019-05-26T01:17:31.275Z,11.49
2019-05-26T01:20:02.298Z,11.56
2019-05-26T01:22:33.311Z,11.41
2019-05-26T01:25:04.560Z,11.30
2019-05-26T01:27:35.942Z,10.82
2019-05-26T01:30:08.090Z,11.00
2019-05-26T01:32:39.157Z,10.94
2019-05-26T01:35:10.512Z,11.04
2019-05-26T01:37:41.890Z,10.91
2019-05-26T01:40:12.949Z,10.71
2019-05-26T01:42:43.907Z,11.10
2019-05-26T01:45:14.929Z,11.31
2019-05-26T01:47:45.910Z,11.48
2019-05-26T01:50:16.886Z,11.51
2019-05-26T01:52:48.352Z,11.45
2019-05-26T01:55:19.876Z,11.54
2019-05-26T01:57:50.870Z,11.49
2019-05-26T02:00:22.989Z,11.59
2019-05-26T02:02:54.080Z,11.50
2019-05-26T02:05:25.129Z,11.48
2019-05-26T02:07:56.086Z,11.09
2019-05-26T02:10:28.180Z,11.26
2019-05-26T02:12:59.482Z,11.30
2019-05-26T02:15:30.893Z,11.37
2019-05-26T02:18:02.449Z,11.11
2019-05-26T02:20:33.660Z,11.16
2019-05-26T02:23:04.713Z,11.16
2019-05-26T02:25:35.701Z,11.31
2019-05-26T02:28:06.919Z,11.15
2019-05-26T02:30:38.841Z,11.14
2019-05-26T02:33:10.092Z,11.18
2019-05-26T02:35:41.131Z,11.11
2019-05-26T02:38:12.179Z,11.32
2019-05-26T02:40:43.526Z,11.10
2019-05-26T02:43:14.592Z,11.26
2019-05-26T02:45:45.561Z,11.20
2019-05-26T02:48:16.723Z,11.18
2019-05-26T02:50:47.935Z,11.17
2019-05-26T02:53:24.301Z,11.11
2019-05-26T02:55:51.979Z,11.17
2019-05-26T02:58:23.110Z,11.08
2019-05-26T03:00:54.269Z,10.79
2019-05-26T03:03:25.786Z,10.70
2019-05-26T03:05:56.854Z,10.89
2019-05-26T03:08:31.699Z,10.96
2019-05-26T03:11:03.422Z,11.04
2019-05-26T03:13:36.492Z,10.94
2019-05-26T03:16:08.158Z,10.93
2019-05-26T03:18:40.200Z,11.13
2019-05-26T03:21:11.704Z,10.92
2019-05-26T03:23:42.883Z,10.70
2019-05-26T03:26:14.906Z,10.71
2019-05-26T03:28:46.103Z,10.87
2019-05-26T03:31:17.121Z,10.80
2019-05-26T03:33:48.688Z,10.86
2019-05-26T03:36:19.674Z,10.80
2019-05-26T03:38:50.645Z,10.90
2019-05-26T03:41:21.704Z,11.06
2019-05-26T03:43:53.043Z,11.19
2019-05-26T03:46:24.010Z,10.98
2019-05-26T03:48:55.041Z,10.83
2019-05-26T03:51:26.424Z,10.67
2019-05-26T03:53:57.424Z,10.55
2019-05-26T03:56:28.671Z,10.71
2019-05-26T03:58:59.990Z,10.88
2019-05-26T04:01:31.264Z,10.77
2019-05-26T04:04:02.315Z,10.64
2019-05-26T04:06:33.341Z,10.69
2019-05-26T04:09:06.372Z,10.72
2019-05-26T04:11:37.370Z,10.77
2019-05-26T04:14:08.290Z,10.81
2019-05-26T04:16:39.824Z,10.77
2019-05-26T04:19:11.630Z,11.05
2019-05-26T04:21:42.812Z,11.02
2019-05-26T04:24:14.035Z,11.02
2019-05-26T04:26:45.036Z,11.24
2019-05-26T04:29:16.341Z,11.52
2019-05-26T04:31:47.356Z,11.50
2019-05-26T04:34:18.812Z,11.56
2019-05-26T04:36:50.156Z,11.29
2019-05-26T04:39:21.096Z,11.32
2019-05-26T04:41:52.166Z,11.35
2019-05-26T04:44:23.161Z,11.30
2019-05-26T04:46:54.147Z,11.40
2019-05-26T04:49:25.518Z,11.35
2019-05-26T04:51:56.480Z,11.49
2019-05-26T04:54:27.453Z,11.50
2019-05-26T04:56:58.421Z,11.54
2019-05-26T04:59:29.385Z,11.70
2019-05-26T05:02:00.948Z,11.54
2019-05-26T05:04:32.565Z,11.67
2019-05-26T05:07:03.537Z,11.97
2019-05-26T05:09:34.818Z,11.96
2019-05-26T05:12:05.816Z,12.00
2019-05-26T05:14:36.773Z,12.14
2019-05-26T05:17:08.004Z,12.12
2019-05-26T05:19:38.950Z,12.25
2019-05-26T05:22:09.919Z,12.47
2019-05-26T05:24:40.878Z,12.50
2019-05-26T05:27:11.895Z,12.55
2019-05-26T05:29:42.861Z,12.29
2019-05-26T05:32:13.852Z,12.34
2019-05-26T05:34:46.422Z,12.69
2019-05-26T05:37:17.666Z,12.85
2019-05-26T05:39:48.876Z,12.89
2019-05-26T05:42:19.884Z,12.85
2019-05-26T05:44:51.148Z,12.84
2019-05-26T05:47:22.649Z,13.03
2019-05-26T05:49:53.596Z,13.15
2019-05-26T05:52:24.588Z,13.22
2019-05-26T05:54:55.874Z,13.56
2019-05-26T05:57:27.186Z,13.62
2019-05-26T05:59:58.605Z,13.66
2019-05-26T06:02:29.898Z,13.97
2019-05-26T06:05:01.775Z,13.85
2019-05-26T06:07:33.213Z,13.98
2019-05-26T06:10:05.655Z,14.10
2019-05-26T06:12:36.769Z,14.17
2019-05-26T06:15:09.610Z,14.29
2019-05-26T06:17:40.650Z,14.25
2019-05-26T06:20:12.336Z,14.42
2019-05-26T06:22:43.724Z,14.37
2019-05-26T06:25:15.405Z,14.71
2019-05-26T06:27:46.904Z,14.52
2019-05-26T06:30:18.330Z,14.53
2019-05-26T06:32:49.381Z,14.77
2019-05-26T06:35:20.536Z,14.83
2019-05-26T06:37:51.506Z,15.01
2019-05-26T06:40:22.600Z,15.10
2019-05-26T06:42:53.618Z,15.29
2019-05-26T06:45:24.677Z,15.38
2019-05-26T06:47:55.834Z,15.51
2019-05-26T06:50:27.176Z,15.77
2019-05-26T06:52:59.346Z,15.50
2019-05-26T06:55:30.481Z,15.99
2019-05-26T06:58:01.468Z,16.41
2019-05-26T07:00:33.049Z,16.48
2019-05-26T07:03:04.088Z,16.28
2019-05-26T07:05:35.093Z,16.41
2019-05-26T07:08:06.377Z,16.58
2019-05-26T07:10:37.447Z,16.63
2019-05-26T07:13:08.685Z,16.85
2019-05-26T07:15:39.958Z,16.75
2019-05-26T07:18:11.171Z,16.99
2019-05-26T07:20:42.844Z,16.85
2019-05-26T07:23:14.359Z,16.67
2019-05-26T07:25:46.230Z,16.84
2019-05-26T07:28:17.251Z,16.75
2019-05-26T07:30:48.556Z,16.69
2019-05-26T07:33:19.690Z,16.66
2019-05-26T07:35:50.886Z,16.83
2019-05-26T07:38:21.986Z,16.83
2019-05-26T07:40:53.188Z,16.60
2019-05-26T07:43:27.979Z,16.65
2019-05-26T07:45:58.342Z,17.02
2019-05-26T07:48:29.316Z,17.07
2019-05-26T07:51:00.511Z,16.98
2019-05-26T07:53:31.711Z,17.02
2019-05-26T07:56:03.691Z,17.16
2019-05-26T07:58:34.965Z,17.56
2019-05-26T08:01:06.442Z,17.27
2019-05-26T08:03:37.381Z,17.82
2019-05-26T08:06:08.406Z,17.55
2019-05-26T08:08:39.394Z,17.58
2019-05-26T08:11:10.609Z,17.46
2019-05-26T08:13:41.594Z,17.93
2019-05-26T08:16:12.996Z,17.87
2019-05-26T08:18:44.041Z,18.23
2019-05-26T08:21:15.143Z,18.55
2019-05-26T08:23:46.090Z,18.53
2019-05-26T08:26:17.651Z,17.97
2019-05-26T08:28:48.602Z,17.94
2019-05-26T08:31:19.707Z,17.95
2019-05-26T08:33:51.969Z,18.22
2019-05-26T08:36:23.024Z,18.08
2019-05-26T08:38:55.045Z,17.81
2019-05-26T08:41:26.958Z,17.97
2019-05-26T08:43:57.962Z,17.95
2019-05-26T08:46:28.985Z,17.82
2019-05-26T08:49:00.020Z,18.28
2019-05-26T08:51:31.562Z,18.37
2019-05-26T08:54:02.597Z,18.40
2019-05-26T08:56:34.647Z,18.61
2019-05-26T08:59:05.688Z,18.91
2019-05-26T09:01:36.638Z,18.80
2019-05-26T09:04:07.741Z,19.27
2019-05-26T09:06:38.710Z,18.93
2019-05-26T09:09:09.716Z,19.09
2019-05-26T09:11:40.765Z,19.51
2019-05-26T09:14:11.708Z,19.82
2019-05-26T09:16:42.992Z,19.99
2019-05-26T09:19:14.677Z,19.34
2019-05-26T09:21:46.994Z,18.84
2019-05-26T09:24:18.072Z,19.39
2019-05-26T09:26:49.511Z,19.58
2019-05-26T09:29:20.803Z,20.03
2019-05-26T09:31:51.980Z,19.98
2019-05-26T09:34:23.012Z,19.46
2019-05-26T09:36:56.884Z,19.38
2019-05-26T09:39:27.691Z,19.88
2019-05-26T09:41:58.688Z,20.17
2019-05-26T09:44:29.823Z,20.05
2019-05-26T09:47:00.762Z,20.84
2019-05-26T09:49:31.916Z,21.20
2019-05-26T09:52:03.120Z,20.82
2019-05-26T09:54:34.198Z,20.70
2019-05-26T09:57:05.757Z,20.88
2019-05-26T09:59:37.033Z,22.04
2019-05-26T10:02:08.307Z,21.70
2019-05-26T10:04:39.293Z,21.26
2019-05-26T10:07:13.469Z,21.91
2019-05-26T10:09:43.274Z,21.69
2019-05-26T10:12:14.698Z,21.89
2019-05-26T10:14:47.865Z,22.39
2019-05-26T10:17:23.656Z,22.47
2019-05-26T10:19:55.446Z,21.73
2019-05-26T10:22:26.729Z,21.50
2019-05-26T10:24:57.802Z,21.22
2019-05-26T10:27:28.742Z,22.50
2019-05-26T10:30:01.241Z,21.71
2019-05-26T10:32:32.273Z,21.71
2019-05-26T10:35:03.604Z,23.22
2019-05-26T10:37:34.766Z,22.18
2019-05-26T10:40:07.795Z,21.92
2019-05-26T10:42:39.089Z,21.45
2019-05-26T10:45:10.641Z,21.82
2019-05-26T10:47:41.717Z,21.24
2019-05-26T10:50:13.443Z,21.20
2019-05-26T10:52:44.743Z,20.89
2019-05-26T10:55:15.865Z,21.62
2019-05-26T10:57:46.964Z,20.49
2019-05-26T11:00:18.725Z,20.92
2019-05-26T11:02:50.185Z,20.53
2019-05-26T11:05:21.251Z,20.66
2019-05-26T11:07:52.238Z,20.95
2019-05-26T11:10:23.714Z,20.38
2019-05-26T11:12:54.717Z,20.47
2019-05-26T11:15:25.701Z,20.53
2019-05-26T11:17:56.647Z,20.47
2019-05-26T11:20:27.922Z,20.44
2019-05-26T11:22:58.966Z,20.68
2019-05-26T11:25:30.922Z,20.52
2019-05-26T11:28:01.924Z,20.70
2019-05-26T11:30:34.296Z,20.21
2019-05-26T11:33:05.709Z,20.22
2019-05-26T11:35:37.330Z,20.53
2019-05-26T11:38:08.377Z,20.75
2019-05-26T11:40:39.626Z,20.51
2019-05-26T11:43:16.730Z,19.97
2019-05-26T11:45:43.935Z,20.09
2019-05-26T11:48:14.960Z,20.28
2019-05-26T11:50:45.919Z,20.12
2019-05-26T11:53:17.148Z,20.06
2019-05-26T11:55:48.142Z,20.39
2019-05-26T11:58:19.259Z,20.66
2019-05-26T12:00:50.216Z,20.23
2019-05-26T12:03:21.884Z,20.83
2019-05-26T12:05:52.969Z,21.19
2019-05-26T12:08:24.277Z,20.85
2019-05-26T12:10:58.416Z,21.12
2019-05-26T12:13:28.238Z,21.26
2019-05-26T12:15:59.253Z,21.51
2019-05-26T12:18:30.426Z,21.54
2019-05-26T12:21:01.464Z,21.98
2019-05-26T12:23:32.878Z,21.61
2019-05-26T12:26:04.190Z,21.67
2019-05-26T12:28:35.775Z,21.62
2019-05-26T12:31:07.317Z,21.34
2019-05-26T12:33:38.465Z,21.12
2019-05-26T12:36:09.756Z,21.27
2019-05-26T12:38:53.635Z,21.62
2019-05-26T12:41:24.610Z,21.38
2019-05-26T12:43:55.616Z,21.42
2019-05-26T12:46:26.619Z,21.00
2019-05-26T12:48:57.717Z,21.31
2019-05-26T12:51:28.698Z,21.45
2019-05-26T12:53:59.702Z,21.13
2019-05-26T12:56:30.720Z,20.91
2019-05-26T12:59:01.707Z,20.79
2019-05-26T13:01:32.863Z,20.89
2019-05-26T13:04:04.167Z,21.20
2019-05-26T13:06:35.148Z,20.94
2019-05-26T13:09:09.163Z,20.95
2019-05-26T13:11:40.415Z,21.00
2019-05-26T13:14:12.718Z,21.15
2019-05-26T13:16:43.952Z,21.10
2019-05-26T13:19:16.141Z,21.50
2019-05-26T13:21:47.209Z,21.40
2019-05-26T13:24:18.765Z,21.62
2019-05-26T13:26:49.807Z,21.68
2019-05-26T13:29:25.522Z,21.45
2019-05-26T13:31:55.195Z,22.02
2019-05-26T13:34:27.125Z,22.42
2019-05-26T13:36:58.464Z,21.92
2019-05-26T13:39:29.444Z,21.92
2019-05-26T13:42:00.447Z,22.10
2019-05-26T13:44:32.504Z,22.39
2019-05-26T13:47:03.474Z,22.37
2019-05-26T13:49:34.691Z,21.73
2019-05-26T13:52:05.767Z,21.91
2019-05-26T13:54:36.737Z,21.66
2019-05-26T13:57:07.795Z,21.71
2019-05-26T13:59:39.949Z,21.91
2019-05-26T14:02:11.236Z,21.80
2019-05-26T14:04:42.343Z,21.71
2019-05-26T14:07:13.557Z,22.31
2019-05-26T14:09:44.659Z,22.24
2019-05-26T14:12:15.763Z,21.98
2019-05-26T14:14:46.992Z,21.58
2019-05-26T14:17:18.037Z,21.84
2019-05-26T14:19:49.277Z,22.35
2019-05-26T14:22:20.361Z,22.58
2019-05-26T14:24:54.163Z,22.69
2019-05-26T14:27:24.355Z,23.16
2019-05-26T14:29:56.194Z,22.61
2019-05-26T14:32:27.518Z,22.46
2019-05-26T14:34:58.480Z,22.21
2019-05-26T14:37:29.586Z,22.17
2019-05-26T14:40:00.555Z,22.02
2019-05-26T14:42:32.253Z,22.20
2019-05-26T14:45:04.332Z,22.34
2019-05-26T14:47:35.978Z,22.51
2019-05-26T14:50:07.463Z,22.98
2019-05-26T14:52:38.683Z,23.24
2019-05-26T14:55:09.890Z,23.13
2019-05-26T14:57:40.844Z,23.51
2019-05-26T15:00:12.297Z,23.02
2019-05-26T15:02:43.661Z,22.85
2019-05-26T15:05:15.775Z,22.63
2019-05-26T15:07:47.161Z,22.54
2019-05-26T15:10:18.522Z,22.91
2019-05-26T15:12:49.652Z,22.66
2019-05-26T15:15:20.921Z,22.70
2019-05-26T15:17:52.515Z,22.63
2019-05-26T15:20:23.469Z,23.20
2019-05-26T15:22:54.968Z,22.54
2019-05-26T15:25:26.490Z,22.56
2019-05-26T15:27:58.169Z,22.34
2019-05-26T15:30:29.570Z,22.34
2019-05-26T15:33:01.052Z,22.28
2019-05-26T15:35:32.419Z,22.20
2019-05-26T15:38:03.494Z,22.53
2019-05-26T15:40:34.728Z,22.15
2019-05-26T15:43:05.976Z,22.15
2019-05-26T15:45:42.158Z,22.32
2019-05-26T15:48:13.698Z,22.46
2019-05-26T15:53:35.041Z,22.44
2019-05-26T15:56:06.018Z,22.50
2019-05-26T15:58:37.295Z,22.44
2019-05-26T16:01:08.615Z,22.44
2019-05-26T16:03:39.917Z,22.64
2019-05-26T16:06:12.348Z,22.79
2019-05-26T16:08:43.359Z,22.72
2019-05-26T16:11:14.621Z,22.65
2019-05-26T16:13:45.646Z,22.26
2019-05-26T16:16:16.692Z,22.40
2019-05-26T16:18:47.915Z,22.17
2019-05-26T16:21:27.989Z,22.20
2019-05-26T16:23:52.310Z,21.91
2019-05-26T16:26:23.431Z,22.40
2019-05-26T16:29:01.562Z,22.01
2019-05-26T16:31:32.863Z,22.20
2019-05-26T16:34:03.921Z,22.13
2019-05-26T16:36:34.922Z,22.03
2019-05-26T16:39:07.791Z,21.95
2019-05-26T16:41:38.744Z,22.13
2019-05-26T16:44:09.796Z,21.80
2019-05-26T16:46:55.413Z,21.89
2019-05-26T16:49:14.181Z,21.83
2019-05-26T16:51:45.262Z,22.08
2019-05-26T16:54:16.203Z,22.08
2019-05-26T16:56:47.237Z,21.80
2019-05-26T16:59:18.275Z,21.65
2019-05-26T17:01:49.922Z,21.76
2019-05-26T17:04:21.099Z,21.65
2019-05-26T17:06:52.383Z,21.65
2019-05-26T17:09:23.661Z,21.57
2019-05-26T17:11:54.698Z,21.66
2019-05-26T17:14:26.132Z,21.60
2019-05-26T17:17:13.424Z,21.93
2019-05-26T17:19:32.132Z,21.57
2019-05-26T17:22:09.873Z,21.56
2019-05-26T17:24:41.125Z,21.73
2019-05-26T17:27:12.119Z,21.71
2019-05-26T17:29:43.420Z,21.68
2019-05-26T17:32:14.610Z,21.56
2019-05-26T17:34:46.003Z,21.57
2019-05-26T17:37:16.990Z,21.42
2019-05-26T17:39:48.163Z,21.34
2019-05-26T17:42:19.167Z,21.37
2019-05-26T17:44:50.502Z,21.43
2019-05-26T17:47:30.003Z,21.47
2019-05-26T17:49:54.770Z,21.47
2019-05-26T17:52:27.316Z,21.54
2019-05-26T17:54:58.398Z,21.54
2019-05-26T17:57:30.974Z,21.68
2019-05-26T18:00:02.004Z,21.49
2019-05-26T18:02:35.945Z,21.32
2019-05-26T18:05:10.541Z,21.50
2019-05-26T18:07:44.733Z,21.45
2019-05-26T18:10:16.211Z,21.63
2019-05-26T18:12:47.392Z,21.76
2019-05-26T18:15:19.038Z,21.31
2019-05-26T18:17:50.092Z,21.12
2019-05-26T18:20:21.579Z,21.09
2019-05-26T18:22:52.738Z,21.08
2019-05-26T18:25:24.939Z,21.12
2019-05-26T18:27:56.083Z,21.25
2019-05-26T18:30:27.894Z,21.09
2019-05-26T18:32:59.090Z,21.05
2019-05-26T18:35:30.162Z,21.00
2019-05-26T18:38:01.609Z,21.02
2019-05-26T18:40:32.715Z,20.86
2019-05-26T18:43:03.868Z,20.79
2019-05-26T18:45:35.290Z,20.98
2019-05-26T18:48:06.332Z,20.83
2019-05-26T18:51:03.408Z,20.68
2019-05-26T18:53:36.404Z,20.60
2019-05-26T18:56:07.693Z,20.64
2019-05-26T18:58:38.740Z,20.68
2019-05-26T19:01:10.171Z,20.54
2019-05-26T19:03:41.204Z,20.48
2019-05-26T19:06:12.275Z,20.57
2019-05-26T19:08:43.421Z,20.48
2019-05-26T19:11:15.785Z,20.45
2019-05-26T19:13:47.202Z,20.42
2019-05-26T19:16:18.566Z,20.34
2019-05-26T19:18:49.862Z,20.61
2019-05-26T19:21:21.610Z,20.20
2019-05-26T19:23:52.688Z,20.31
2019-05-26T19:26:23.791Z,20.32
2019-05-26T19:28:55.429Z,20.28
2019-05-26T19:31:30.133Z,20.27
2019-05-26T19:34:01.792Z,20.23
2019-05-26T19:36:33.091Z,20.00
2019-05-26T19:39:05.628Z,20.11
2019-05-26T19:41:39.107Z,20.12
2019-05-26T19:44:10.794Z,20.09
2019-05-26T19:46:42.085Z,20.10
2019-05-26T19:49:13.305Z,20.13
2019-05-26T19:51:45.009Z,20.15
2019-05-26T19:54:15.954Z,20.08
2019-05-26T19:56:48.504Z,19.97
2019-05-26T19:59:19.677Z,20.15
2019-05-26T20:01:50.669Z,20.10
2019-05-26T20:04:22.644Z,19.96
2019-05-26T20:06:53.845Z,19.87
2019-05-26T20:09:25.150Z,19.88
2019-05-26T20:11:56.247Z,19.94
2019-05-26T20:17:16.967Z,19.99
2019-05-26T20:19:48.424Z,19.88
2019-05-26T20:22:19.776Z,19.92
2019-05-26T20:24:50.873Z,20.01
2019-05-26T20:27:22.139Z,19.96
2019-05-26T20:29:53.241Z,19.72
2019-05-26T20:32:24.312Z,19.85
2019-05-26T20:34:55.797Z,19.82
2019-05-26T20:37:27.145Z,19.80
2019-05-26T20:39:58.169Z,19.96
2019-05-26T20:42:29.241Z,19.82
2019-05-26T20:45:00.239Z,19.83
2019-05-26T20:47:31.276Z,19.77
2019-05-26T20:50:02.376Z,19.89
2019-05-26T20:52:33.491Z,19.73
2019-05-26T20:55:04.977Z,19.80
2019-05-26T20:57:36.212Z,19.85
2019-05-26T21:00:09.011Z,19.70
2019-05-26T21:02:40.167Z,19.89
2019-05-26T21:05:11.239Z,19.86
2019-05-26T21:07:42.461Z,19.80
2019-05-26T21:10:13.508Z,19.94
2019-05-26T21:12:44.607Z,19.80
2019-05-26T21:15:15.949Z,19.69
2019-05-26T21:17:47.631Z,19.76
2019-05-26T21:20:18.976Z,19.72
2019-05-26T21:22:50.067Z,19.85
2019-05-26T21:25:21.436Z,19.96
2019-05-26T21:27:52.954Z,19.71
2019-05-26T21:30:23.968Z,19.81
2019-05-26T21:32:56.284Z,19.84
2019-05-26T21:35:27.806Z,19.67
2019-05-26T21:37:59.024Z,19.53
2019-05-26T21:40:30.084Z,19.60
2019-05-26T21:43:01.349Z,19.61
2019-05-26T21:45:32.630Z,19.55
2019-05-26T21:48:03.693Z,19.65
2019-05-26T21:50:34.911Z,19.46
2019-05-26T21:53:05.920Z,19.51
2019-05-26T21:55:36.993Z,19.40
2019-05-26T21:58:08.030Z,19.46
2019-05-26T22:00:45.022Z,19.61
2019-05-26T22:03:17.663Z,19.35
2019-05-26T22:05:49.075Z,19.41
2019-05-26T22:08:20.378Z,19.40
2019-05-26T22:10:51.671Z,19.42
2019-05-26T22:13:22.707Z,19.48
2019-05-26T22:15:53.694Z,19.51
2019-05-26T22:18:24.897Z,19.40
2019-05-26T22:20:55.979Z,19.43
2019-05-26T22:23:27.411Z,19.31
2019-05-26T22:25:59.005Z,19.34
2019-05-26T22:28:29.991Z,19.31
2019-05-26T22:31:01.051Z,19.24
2019-05-26T22:36:06.820Z,19.43
2019-05-26T22:38:38.105Z,19.31
2019-05-26T22:41:09.347Z,19.49
2019-05-26T22:43:42.499Z,19.35
2019-05-26T22:46:13.819Z,19.24
2019-05-26T22:48:45.641Z,19.31
2019-05-26T22:51:16.587Z,19.26
2019-05-26T22:53:47.603Z,19.16
2019-05-26T22:56:20.400Z,19.22
2019-05-26T22:58:51.614Z,19.30
2019-05-26T23:01:22.888Z,19.16
2019-05-26T23:03:53.851Z,19.21
2019-05-26T23:06:24.801Z,19.35
2019-05-26T23:08:55.898Z,19.39
2019-05-26T23:11:27.428Z,19.34
2019-05-26T23:13:58.449Z,19.32
2019-05-26T23:16:29.704Z,19.28
2019-05-26T23:19:00.724Z,19.24
2019-05-26T23:21:32.293Z,19.32
2019-05-26T23:24:03.454Z,19.27
2019-05-26T23:26:34.466Z,19.03
2019-05-26T23:29:06.045Z,19.03
2019-05-26T23:31:37.468Z,19.24
2019-05-26T23:34:09.016Z,19.14
2019-05-26T23:36:40.044Z,19.01
2019-05-26T23:39:11.090Z,18.96
2019-05-26T23:41:42.005Z,19.06
2019-05-26T23:44:13.719Z,18.89
2019-05-26T23:46:45.148Z,18.89
2019-05-26T23:49:16.524Z,18.85
2019-05-26T23:51:47.471Z,18.71
2019-05-26T23:54:19.303Z,18.87
2019-05-26T23:56:51.244Z,18.71
2019-05-26T23:59:22.379Z,18.66
